KFNL/FNL METAR and TAF weather

Enter ICAO airport designator
Station Type Date Time Source
KFNL METAR 2019/09/20 20:24 UTC NOAA

KFNL 202024Z AUTO 13005KT 1 1/2SM HZ CLR 29/06 A2975 RMK AO2 VIS 1/2V5


Station Type Date Time Source
KFNL Decoded METAR 2019/09/20 20:24 UTC NOAA

Fort Collins/Loveland, Fort Collins-Loveland Municipal Airport, CO, United States (KFNL) 40-27N 105-01W
Sep 20, 2019 - 04:24 PM EDT / 2019.09.20 2024 UTC
Wind: from the SE (130 degrees) at 6 MPH (5 KT):0
Visibility: 1 1/2 mile(s):0
Sky conditions: clear
Weather: haze
Temperature: 84 F (29 C)
Dew Point: 42 F (6 C)
Relative Humidity: 23%
Pressure (altimeter): 29.75 in. Hg (1007 hPa)
ob: KFNL 202024Z AUTO 13005KT 1 1/2SM HZ CLR 29/06 A2975 RMK AO2 VIS 1/2V5
cycle: 20

Station Type Date Time Source
KFNL TAF UTC NOAA

Error!

Example: see airport list